Home > Products > Valid Products > TAF

000
FTUS43 KFGF 270520
TAFGFK
TAF
KGFK 270520Z 2706/2806 29006KT P6SM SCT150
     FM271200 34008KT P6SM SCT250
     FM280000 06006KT P6SM SCT150=



000
FTUS43 KFGF 270520
TAFFAR
TAF
KFAR 270520Z 2706/2806 23006KT P6SM SCT150
     FM271200 34008KT P6SM SCT250
     FM280000 06006KT P6SM SCT150=



000
FTUS43 KFGF 262330
TAFGFK
TAF
KGFK 262330Z 2700/2724 27006KT P6SM SCT250
     FM270300 29006KT P6SM SCT120
     FM271200 34008KT P6SM SCT250=



000
FTUS43 KFGF 262330
TAFFAR
TAF
KFAR 262330Z 2700/2724 24007KT P6SM FEW250
     FM270300 26006KT P6SM SCT120
     FM271200 33007KT P6SM SKC=



000
FTUS43 KFGF 261720
TAFGFK
TAF
KGFK 261720Z 2618/2718 25006KT P6SM SCT080
     FM262100 27006KT P6SM VCSH SCT250
     FM270300 29006KT P6SM SCT120
     FM271200 34008KT P6SM SCT250=



000
FTUS43 KFGF 261720
TAFFAR
TAF
KFAR 261720Z 2618/2718 20007KT P6SM SCT080
     FM262100 24007KT P6SM VCSH FEW250
     FM270300 26006KT P6SM SCT120
     FM271200 33007KT P6SM SKC=



000
FTUS43 KFGF 261720
TAFGFK
TAF
KGFK 261720Z 2618/2718 25006KT P6SM SCT080
     FM262100 27006KT P6SM VCSH SCT250
     FM270300 29006KT P6SM SCT120
     FM271200 34008KT P6SM SCT250=



000
FTUS43 KFGF 261720
TAFFAR
TAF
KFAR 261720Z 2618/2718 20007KT P6SM SCT080
     FM262100 24007KT P6SM VCSH FEW250
     FM270300 26006KT P6SM SCT120
     FM271200 33007KT P6SM SKC=



000
FTUS43 KFGF 261126
TAFFAR
TAF
KFAR 261126Z 2612/2712 VRB05KT P6SM FEW120
     FM261800 VRB06KT P6SM SCT080
     FM262100 VRB06KT P6SM VCSH BKN090
     FM270300 VRB05KT P6SM SCT120=



000
FTUS43 KFGF 261126
TAFGFK
TAF
KGFK 261126Z 2612/2712 VRB05KT P6SM FEW250
     FM261800 VRB06KT P6SM SCT080
     FM262100 VRB06KT P6SM VCSH BKN090
     FM270300 VRB05KT P6SM SCT120=



000
FTUS43 KFGF 260648 AAA
TAFFAR
TAF AMD
KFAR 260648Z 2607/2706 VRB03KT P6SM SCT110
      TEMPO 2607/2611 2SM BR
     FM261500 18006KT P6SM SCT110
     FM262100 30006KT P6SM SCT110=



000
FTUS43 KFGF 260648 AAA
TAFFAR
TAF AMD
KFAR 260648Z 2607/2706 VRB03KT P6SM SCT110
      TEMPO 2607/2611 2SM BR
     FM261500 18006KT P6SM SCT110
     FM262100 30006KT P6SM SCT110=



000
FTUS43 KFGF 260522
TAFFAR
TAF
KFAR 260522Z 2606/2706 01003KT P6SM SCT110
     FM261500 18006KT P6SM SCT110
     FM262100 30006KT P6SM SCT110=



000
FTUS43 KFGF 260522
TAFGFK
TAF
KGFK 260522Z 2606/2706 18005KT P6SM SCT250
     FM261600 29006KT P6SM SCT110=



000
FTUS43 KFGF 252339
TAFGFK
TAF
KGFK 252339Z 2600/2624 17007KT P6SM SCT250
     FM261600 29006KT P6SM BKN250=



000
FTUS43 KFGF 252339
TAFFAR
TAF
KFAR 252339Z 2600/2624 03006KT P6SM OVC090
     FM260600 20003KT P6SM BKN120
     FM261200 24006KT P6SM BKN250=



000
FTUS43 KFGF 252339
TAFGFK
TAF
KGFK 252339Z 2600/2624 17007KT P6SM SCT250
     FM261600 29006KT P6SM BKN250=



000
FTUS43 KFGF 252339
TAFFAR
TAF
KFAR 252339Z 2600/2624 03006KT P6SM OVC090
     FM260600 20003KT P6SM BKN120
     FM261200 24006KT P6SM BKN250=



000
FTUS43 KFGF 251915 AAA
TAFFAR
TAF AMD
KFAR 251915Z 2519/2618 03008KT P6SM OVC080
     FM260300 26005KT P6SM BKN120
     FM261200 24006KT P6SM BKN250=



000
FTUS43 KFGF 251720
TAFFAR
TAF
KFAR 251720Z 2518/2618 03008KT P6SM -RA OVC080
     FM252300 02007KT P6SM OVC060
     FM260300 26005KT P6SM BKN120
     FM261200 24006KT P6SM BKN250=



000
FTUS43 KFGF 251720
TAFGFK
TAF
KGFK 251720Z 2518/2618 33005KT P6SM FEW150 OVC200
     FM260000 22006KT P6SM BKN250
     FM261200 27006KT P6SM BKN250=



000
FTUS43 KFGF 251553 AAA
TAFFAR
TAF AMD
KFAR 251553Z 2516/2612 01008KT P6SM -RA OVC070
     FM252200 36007KT P6SM OVC100
     FM260300 VRB03KT P6SM BKN120=



000
FTUS43 KFGF 251553 AAA
TAFFAR
TAF AMD
KFAR 251553Z 2516/2612 01008KT P6SM -RA OVC070
     FM252200 36007KT P6SM OVC100
     FM260300 VRB03KT P6SM BKN120=



000
FTUS43 KFGF 251141
TAFFAR
TAF
KFAR 251141Z 2512/2612 36008KT P6SM -RA OVC050
     FM251900 36007KT P6SM OVC100
     FM260300 VRB03KT P6SM BKN120=



000
FTUS43 KFGF 251141
TAFGFK
TAF
KGFK 251141Z 2512/2612 VRB03KT P6SM OVC100
     FM251600 02007KT P6SM OVC100
     FM260000 VRB03KT P6SM BKN250=



000
FTUS43 KFGF 250714 AAA
TAFFAR
TAF AMD
KFAR 250714Z 2507/2606 04003KT P6SM -RA OVC050
     FM251400 02008KT P6SM -RA OVC035
     FM252100 36007KT P6SM OVC040=



000
FTUS43 KFGF 250522
TAFFAR
TAF
KFAR 250522Z 2506/2606 13003KT P6SM BKN100
     FM251400 01008KT P6SM VCSH OVC035
     FM260000 36007KT P6SM OVC040=



000
FTUS43 KFGF 250522
TAFGFK
TAF
KGFK 250522Z 2506/2606 05003KT P6SM OVC200
     FM250900 08003KT P6SM OVC100=



000
FTUS43 KFGF 250522
TAFFAR
TAF
KFAR 250522Z 2506/2606 13003KT P6SM BKN100
     FM251400 01008KT P6SM VCSH OVC035
     FM260000 36007KT P6SM OVC040=



000
FTUS43 KFGF 250522
TAFGFK
TAF
KGFK 250522Z 2506/2606 05003KT P6SM OVC200
     FM250900 08003KT P6SM OVC100=



000
FTUS43 KFGF 242340
TAFFAR
TAF
KFAR 242340Z 2500/2524 09006KT P6SM OVC060
     FM250500 08005KT P6SM OVC040=



000
FTUS43 KFGF 242340
TAFGFK
TAF
KGFK 242340Z 2500/2524 09004KT P6SM OVC250
     FM250500 08003KT P6SM OVC100=



000
FTUS43 KFGF 242340
TAFGFK
TAF
KGFK 242340Z 2500/2524 09004KT P6SM OVC250
     FM250500 08003KT P6SM OVC100=



000
FTUS43 KFGF 242340
TAFFAR
TAF
KFAR 242340Z 2500/2524 09006KT P6SM OVC060
     FM250500 08005KT P6SM OVC040=



000
FTUS43 KFGF 241722
TAFFAR
TAF
KFAR 241722Z 2418/2518 08006KT P6SM OVC060
     FM250000 11009KT P6SM -SHRA OVC040=



000
FTUS43 KFGF 241722
TAFFAR
TAF
KFAR 241722Z 2418/2518 08006KT P6SM OVC060
     FM250000 11009KT P6SM -SHRA OVC040=



000
FTUS43 KFGF 241722
TAFGFK
TAF
KGFK 241722Z 2418/2518 12008KT P6SM SCT250
     FM242000 08009KT P6SM OVC100=



000
FTUS43 KFGF 241140
TAFGFK
TAF
KGFK 241140Z 2412/2512 VRB06KT P6SM SCT250
     FM241900 11009KT P6SM BKN060=



000
FTUS43 KFGF 241140
TAFGFK
TAF
KGFK 241140Z 2412/2512 VRB06KT P6SM SCT250
     FM241900 11009KT P6SM BKN060=



000
FTUS43 KFGF 241140
TAFFAR
TAF
KFAR 241140Z 2412/2512 VRB06KT P6SM BKN060
     FM242200 11007KT P6SM VCSH OVC040
     FM250300 11009KT P6SM -SHRA OVC030=



000
FTUS43 KFGF 241140
TAFFAR
TAF
KFAR 241140Z 2412/2512 VRB06KT P6SM BKN060
     FM242200 11007KT P6SM VCSH OVC040
     FM250300 11009KT P6SM -SHRA OVC030=



    US Dept of Commerce
    National Oceanic and Atmospheric Administration
    National Weather Service
    1325 East West Highway
    Silver Spring, MD 20910
    Page Author: NWS Internet Services Team
Disclaimer
Information Quality
Credits
Glossary
Privacy Policy
Freedom of Information Act (FOIA)
About Us
Career Opportunities